Time;durP1;ratioP1;P1;durP2;ratioP2;P2;SDS_P1;SDS_P2;PMS_P1;PMS_P2;Temp;Humidity;BMP_temperature;BMP_pressure;BME280_temperature;BME280_humidity;BME280_pressure;Samples;Min_cycle;Max_cycle;Signal;HPM_P1;HPM_P2
2022/12/22 03:26:18;;;;;;;172.70;28.15;;;;;;;0.99;100.00;101848.00;2114720;28;20162;-62
2022/12/22 03:27:18;;;;;;;125.20;28.38;;;;;;;0.99;100.00;101844.50;2106406;28;20182;-62
2022/12/22 03:28:26;;;;;;;107.30;27.23;;;;;;;1.03;100.00;101857.13;2112478;28;20663;-62
2022/12/22 03:29:27;;;;;;;71.25;25.92;;;;;;;1.05;100.00;101840.41;2114261;28;20643;-62
2022/12/22 03:30:27;;;;;;;65.77;25.50;;;;;;;0.27;100.00;101719.63;2110180;28;20596;-62
2022/12/22 03:31:27;;;;;;;56.07;25.43;;;;;;;1.12;100.00;101840.63;2108822;28;20221;-62
2022/12/22 03:32:28;;;;;;;67.80;25.57;;;;;;;1.12;100.00;101838.72;2114619;28;20171;-62
2022/12/22 03:33:29;;;;;;;60.70;26.43;;;;;;;0.85;100.00;101792.97;2114265;28;20257;-62
2022/12/22 03:34:30;;;;;;;59.85;26.52;;;;;;;1.09;100.00;101822.22;2106527;28;20269;-62
2022/12/22 03:35:30;;;;;;;82.97;26.37;;;;;;;1.27;100.00;101839.97;2105989;28;20198;-62
2022/12/22 03:36:31;;;;;;;91.73;26.93;;;;;;;1.30;100.00;101840.09;2111954;28;20214;-62
2022/12/22 03:37:31;;;;;;;86.67;25.93;;;;;;;1.33;100.00;101841.34;2114607;28;20283;-62
2022/12/22 03:38:32;;;;;;;78.93;29.27;;;;;;;1.28;100.00;101847.84;2111124;28;20241;-62
2022/12/22 03:39:32;;;;;;;73.97;26.83;;;;;;;1.25;100.00;101840.34;2106224;28;20231;-62
2022/12/22 03:40:33;;;;;;;64.77;27.00;;;;;;;1.16;100.00;101827.91;2107505;28;20675;-62
2022/12/22 03:46:49;;;;;;;61.33;24.17;;;;;;;1.14;100.00;101841.91;2114548;28;20200;-62
2022/12/22 03:47:49;;;;;;;69.83;25.77;;;;;;;1.19;100.00;101846.34;2114123;28;20186;-62
2022/12/22 03:50:09;;;;;;;92.88;24.67;;;;;;;1.20;100.00;101848.75;2110323;28;20198;-62
2022/12/22 03:51:10;;;;;;;75.03;24.87;;;;;;;1.17;100.00;101849.41;2114804;28;20178;-62
2022/12/22 03:52:10;;;;;;;79.80;25.07;;;;;;;1.22;100.00;101854.66;2114362;28;20321;-62
2022/12/22 03:53:11;;;;;;;64.53;24.13;;;;;;;1.27;100.00;101842.72;2114792;28;20209;-62
2022/12/22 03:54:15;;;;;;;61.63;25.43;;;;;;;0.68;100.00;101735.06;2106418;28;20666;-62
2022/12/22 03:55:15;;;;;;;81.95;24.27;;;;;;;1.32;100.00;101837.03;2113223;28;20251;-62
2022/12/22 03:56:16;;;;;;;74.30;25.73;;;;;;;1.28;100.00;101842.38;2108729;28;20210;-62
2022/12/22 03:57:16;;;;;;;79.43;24.83;;;;;;;1.20;100.00;101826.09;2109369;28;20579;-62
2022/12/22 03:58:16;;;;;;;90.33;24.83;;;;;;;1.25;100.00;101843.06;2112158;28;20174;-62
2022/12/22 03:59:18;;;;;;;70.57;22.80;;;;;;;1.23;100.00;101839.09;2107167;28;20212;-62
2022/12/22 04:00:18;;;;;;;74.95;24.85;;;;;;;1.25;100.00;101832.16;2114608;28;20200;-62
2022/12/22 04:01:19;;;;;;;82.17;24.90;;;;;;;1.22;100.00;101835.53;2114615;28;20197;-62
2022/12/22 04:02:19;;;;;;;105.23;25.23;;;;;;;0.57;100.00;101755.75;2114602;28;20341;-62
2022/12/22 04:03:20;;;;;;;118.60;27.27;;;;;;;1.14;100.00;101836.44;2114358;28;20186;-62
2022/12/22 04:04:23;;;;;;;104.77;24.80;;;;;;;1.02;100.00;101839.16;2110092;28;20238;-62
2022/12/22 04:05:24;;;;;;;102.93;25.38;;;;;;;1.05;100.00;101834.94;2108689;28;20190;-62
2022/12/22 04:06:25;;;;;;;130.32;25.38;;;;;;;1.09;100.00;101836.66;2114514;28;20181;-62
2022/12/22 04:07:25;;;;;;;100.23;25.07;;;;;;;1.02;100.00;101841.88;2113900;27;20176;-62
2022/12/22 04:08:26;;;;;;;78.37;25.60;;;;;;;0.34;100.00;101739.00;2114511;28;20182;-62
2022/12/22 04:09:28;;;;;;;71.47;26.50;;;;;;;1.10;100.00;101834.75;2114264;28;20625;-62
2022/12/22 04:13:06;;;;;;;90.05;25.73;;;;;;;1.19;100.00;101843.63;2106390;28;20755;-62
2022/12/22 04:14:06;;;;;;;63.77;25.13;;;;;;;1.07;100.00;101817.09;2105879;28;20203;-62
2022/12/22 04:15:07;;;;;;;62.70;24.77;;;;;;;1.30;100.00;101834.63;2112896;28;20232;-62
2022/12/22 04:16:07;;;;;;;54.20;24.63;;;;;;;0.57;100.00;101709.38;2108702;28;20596;-62
2022/12/22 04:17:08;;;;;;;58.97;24.10;;;;;;;1.25;100.00;101804.03;2110315;28;20447;-62
2022/12/22 04:18:09;;;;;;;68.23;25.70;;;;;;;1.45;100.00;101831.22;2113627;28;20186;-62
2022/12/22 04:19:09;;;;;;;75.60;24.33;;;;;;;1.45;100.00;101833.94;2113958;28;20171;-62
2022/12/22 04:20:10;;;;;;;59.97;23.63;;;;;;;1.45;100.00;101825.75;2114077;28;20178;-62
2022/12/22 04:21:11;;;;;;;77.20;24.37;;;;;;;1.46;100.00;101829.28;2106409;28;20257;-62
2022/12/22 04:22:11;;;;;;;117.83;25.10;;;;;;;1.44;100.00;101829.63;2113619;28;20190;-62
2022/12/22 04:23:11;;;;;;;89.50;26.30;;;;;;;1.42;100.00;101834.66;2114234;28;20218;-62
2022/12/22 04:24:12;;;;;;;115.47;27.07;;;;;;;1.33;100.00;101833.94;2114378;27;20179;-62
2022/12/22 04:25:13;;;;;;;124.53;28.60;;;;;;;1.29;100.00;101830.31;2113946;28;20190;-62
2022/12/22 04:26:14;;;;;;;83.75;27.17;;;;;;;1.30;100.00;101826.44;2114107;27;20254;-62
2022/12/22 04:27:14;;;;;;;97.50;26.60;;;;;;;1.33;100.00;101838.59;2114434;28;20182;-62
2022/12/22 04:28:14;;;;;;;84.20;26.87;;;;;;;1.37;100.00;101828.59;2113619;28;20205;-62
2022/12/22 04:29:15;;;;;;;58.40;26.60;;;;;;;1.40;100.00;101836.13;2114159;28;20201;-62
2022/12/22 04:30:16;;;;;;;73.47;27.00;;;;;;;1.37;100.00;101832.13;2114376;28;20273;-62
2022/12/22 04:31:17;;;;;;;52.25;26.98;;;;;;;1.40;100.00;101828.72;2108111;28;20205;-62
2022/12/22 04:32:18;;;;;;;58.50;26.38;;;;;;;1.41;100.00;101832.25;2118667;27;20535;-62
2022/12/22 04:33:18;;;;;;;60.87;24.87;;;;;;;1.43;100.00;101819.03;2121457;27;20193;-62
2022/12/22 04:34:18;;;;;;;87.70;24.93;;;;;;;1.43;100.00;101822.56;2111456;28;20174;-62
2022/12/22 04:35:19;;;;;;;61.17;25.67;;;;;;;1.44;100.00;101824.16;2106864;28;20177;-62
2022/12/22 04:36:19;;;;;;;58.07;25.40;;;;;;;0.65;100.00;101697.53;2113412;28;20172;-62
2022/12/22 04:37:20;;;;;;;65.97;26.17;;;;;;;1.50;100.00;101819.28;2110530;28;20178;-62
2022/12/22 04:38:20;;;;;;;74.00;26.60;;;;;;;1.50;100.00;101828.25;2113627;28;20264;-62
2022/12/22 04:39:21;;;;;;;65.23;25.30;;;;;;;1.54;100.00;101831.13;2114130;28;20285;-62
2022/12/22 04:40:21;;;;;;;71.03;26.60;;;;;;;1.55;100.00;101827.25;2114462;28;20186;-62
2022/12/22 04:41:22;;;;;;;76.73;27.20;;;;;;;1.35;100.00;101806.31;2114498;28;20186;-62
2022/12/22 04:42:22;;;;;;;86.27;26.10;;;;;;;1.50;100.00;101831.00;2111874;28;20175;-62
2022/12/22 04:43:22;;;;;;;76.67;26.23;;;;;;;1.41;100.00;101830.34;2107085;28;20167;-62
2022/12/22 04:44:23;;;;;;;88.60;25.90;;;;;;;1.40;100.00;101825.19;2114470;28;20186;-62
2022/12/22 04:45:23;;;;;;;75.10;26.17;;;;;;;1.37;100.00;101825.88;2113964;28;20194;-62
2022/12/22 04:46:24;;;;;;;76.70;26.70;;;;;;;1.40;100.00;101820.53;2113868;28;20451;-62
2022/12/22 04:47:24;;;;;;;76.90;27.63;;;;;;;1.44;100.00;101820.66;2113933;28;20297;-62
2022/12/22 04:48:26;;;;;;;87.57;27.30;;;;;;;1.08;100.00;101768.78;2112915;28;20331;-62
2022/12/22 04:49:27;;;;;;;87.32;27.00;;;;;;;1.43;100.00;101822.56;2110722;28;20198;-62
2022/12/22 04:50:27;;;;;;;100.60;25.63;;;;;;;1.40;100.00;101817.00;2107510;28;20254;-62
2022/12/22 04:51:28;;;;;;;96.53;28.07;;;;;;;1.33;100.00;101816.75;2113514;28;20175;-62
2022/12/22 04:52:28;;;;;;;106.10;26.80;;;;;;;1.28;100.00;101823.25;2114414;28;20179;-62
2022/12/22 04:53:29;;;;;;;76.87;25.63;;;;;;;1.29;100.00;101813.16;2113672;27;20675;-66
2022/12/22 04:54:30;;;;;;;87.78;26.13;;;;;;;1.32;100.00;101815.16;2111062;28;20594;-66
2022/12/22 04:55:30;;;;;;;113.73;27.40;;;;;;;1.33;100.00;101814.03;2112305;28;20186;-66
2022/12/22 04:56:31;;;;;;;87.83;27.00;;;;;;;1.31;100.00;101813.59;2111566;28;20235;-66
2022/12/22 04:57:31;;;;;;;111.37;27.00;;;;;;;1.30;100.00;101814.72;2113151;28;20697;-65
2022/12/22 04:58:33;;;;;;;74.93;26.40;;;;;;;1.26;100.00;101813.81;2111872;28;20239;-61
2022/12/22 04:59:33;;;;;;;128.93;27.50;;;;;;;1.23;100.00;101826.22;2111783;28;20179;-61
2022/12/22 05:00:34;;;;;;;76.03;26.60;;;;;;;1.22;100.00;101821.09;2109284;28;20261;-63
2022/12/22 05:01:34;;;;;;;81.53;27.63;;;;;;;1.18;100.00;101825.66;2112453;28;20663;-63
2022/12/22 05:02:34;;;;;;;89.53;26.73;;;;;;;1.17;100.00;101818.56;2110662;28;20229;-62
2022/12/22 05:03:35;;;;;;;70.43;26.60;;;;;;;1.15;100.00;101813.47;2111939;28;20194;-63
2022/12/22 05:04:35;;;;;;;69.03;26.87;;;;;;;1.07;100.00;101817.09;2112931;28;20289;-63
2022/12/22 05:05:36;;;;;;;98.40;27.70;;;;;;;1.07;100.00;101810.84;2112954;28;20818;-60
2022/12/22 05:06:36;;;;;;;74.37;27.40;;;;;;;1.05;100.00;101797.53;2119937;27;20220;-62
2022/12/22 05:07:37;;;;;;;69.80;27.23;;;;;;;1.08;100.00;101805.03;2120892;27;20174;-62
2022/12/22 05:08:37;;;;;;;69.00;28.03;;;;;;;0.24;100.00;101667.72;2113325;28;20179;-62
2022/12/22 05:09:39;;;;;;;94.50;27.77;;;;;;;1.15;100.00;101809.94;2112067;28;20265;-60
2022/12/22 05:10:40;;;;;;;66.53;27.92;;;;;;;1.17;100.00;101807.66;2112499;28;20282;-59
2022/12/22 05:11:40;;;;;;;91.57;27.80;;;;;;;1.07;100.00;101803.44;2113776;28;20194;-60
2022/12/22 05:12:56;;;;;;;82.63;28.30;;;;;;;1.15;100.00;101812.66;2113531;28;20198;-59
2022/12/22 05:13:56;;;;;;;68.32;27.98;;;;;;;1.13;100.00;101804.03;2113065;28;20654;-60
2022/12/22 05:14:57;;;;;;;62.60;25.40;;;;;;;1.07;100.00;101808.91;2111913;28;20632;-59
2022/12/22 05:16:09;;;;;;;72.50;27.47;;;;;;;1.11;100.00;101803.56;2112475;28;20702;-63
2022/12/22 05:17:09;;;;;;;67.22;27.88;;;;;;;1.09;100.00;101812.09;2112791;28;20220;-60
2022/12/22 05:18:12;;;;;;;86.17;27.70;;;;;;;1.02;100.00;101811.88;2112224;28;20181;-66
2022/12/22 05:19:12;;;;;;;111.65;28.42;;;;;;;0.92;100.00;101806.84;2111728;28;20184;-65
2022/12/22 05:20:12;;;;;;;97.73;28.07;;;;;;;0.91;100.00;101805.25;2113684;28;20182;-66
2022/12/22 05:21:16;;;;;;;120.67;26.27;;;;;;;0.93;100.00;101805.69;2112959;28;20190;-60
2022/12/22 05:22:17;;;;;;;78.32;28.10;;;;;;;0.99;100.00;101804.34;2112294;28;20194;-63
2022/12/22 05:23:17;;;;;;;87.07;27.47;;;;;;;1.02;100.00;101805.59;2112269;28;20197;-64
2022/12/22 05:24:17;;;;;;;58.20;26.53;;;;;;;0.21;100.00;101669.19;2112579;28;20237;-64
2022/12/22 05:25:18;;;;;;;146.57;26.87;;;;;;;1.15;100.00;101804.47;2110319;28;20194;-63
2022/12/22 05:26:19;;;;;;;108.77;27.77;;;;;;;1.21;100.00;101809.38;2110571;28;20550;-63
2022/12/22 05:27:19;;;;;;;69.13;25.40;;;;;;;1.28;100.00;101808.81;2112991;28;20190;-64
2022/12/22 05:28:20;;;;;;;53.93;25.53;;;;;;;1.12;100.00;101788.78;2111332;28;20968;-63
2022/12/22 05:29:20;;;;;;;53.17;25.73;;;;;;;1.38;100.00;101819.25;2111683;28;20189;-63
2022/12/22 05:30:20;;;;;;;110.00;26.37;;;;;;;1.26;100.00;101817.34;2111776;28;20194;-59
2022/12/22 05:31:24;;;;;;;72.77;26.80;;;;;;;1.06;100.00;101810.06;2112727;28;20290;-60
2022/12/22 05:32:25;;;;;;;103.93;28.00;;;;;;;1.06;100.00;101817.44;2112606;28;20206;-61
2022/12/22 05:33:26;;;;;;;92.13;27.77;;;;;;;0.95;100.00;101819.03;2113121;28;20269;-62
2022/12/22 05:34:26;;;;;;;98.33;30.50;;;;;;;0.87;100.00;101825.34;2111697;28;20195;-62
2022/12/22 05:35:27;;;;;;;124.40;27.30;;;;;;;0.68;100.00;101828.63;2112444;28;20612;-64
2022/12/22 05:36:27;;;;;;;96.43;27.63;;;;;;;0.63;100.00;101828.03;2113066;28;20577;-64
2022/12/22 05:37:28;;;;;;;85.77;25.57;;;;;;;0.56;100.00;101822.31;2113610;28;20174;-64
2022/12/22 05:38:28;;;;;;;68.70;25.83;;;;;;;0.75;100.00;101826.16;2112759;28;20251;-64
2022/12/22 05:39:29;;;;;;;78.60;28.73;;;;;;;0.81;100.00;101832.16;2112943;28;20260;-64
2022/12/22 05:40:29;;;;;;;79.90;27.60;;;;;;;0.73;100.00;101813.97;2112228;28;20189;-64
2022/12/22 05:41:30;;;;;;;97.13;32.70;;;;;;;0.12;100.00;101723.00;2089560;28;20226;-64
2022/12/22 05:42:36;;;;;;;64.97;28.63;;;;;;;0.86;100.00;101831.94;2109900;28;20192;-64
2022/12/22 05:43:36;;;;;;;100.18;27.83;;;;;;;0.90;100.00;101835.59;2111094;28;20184;-64
2022/12/22 05:44:37;;;;;;;73.90;28.53;;;;;;;0.89;100.00;101836.75;2097121;28;20217;-66
2022/12/22 05:45:37;;;;;;;77.10;27.77;;;;;;;0.84;100.00;101817.88;2110925;28;20186;-65
2022/12/22 05:46:38;;;;;;;69.00;27.83;;;;;;;0.97;100.00;101827.66;2109758;28;20286;-64
2022/12/22 05:47:38;;;;;;;71.30;29.77;;;;;;;0.72;100.00;101783.16;2111114;28;20197;-64
2022/12/22 05:48:39;;;;;;;73.47;30.20;;;;;;;1.14;100.00;101828.25;2109473;28;20181;-65
2022/12/22 05:49:39;;;;;;;56.53;26.10;;;;;;;1.20;100.00;101837.03;2106883;28;20196;-65
2022/12/22 05:50:40;;;;;;;68.93;26.00;;;;;;;1.22;100.00;101841.00;2108414;28;20200;-65
2022/12/22 05:51:40;;;;;;;59.50;28.53;;;;;;;1.32;100.00;101831.56;2110628;28;20314;-64
2022/12/22 05:52:41;;;;;;;83.30;37.37;;;;;;;1.38;100.00;101830.19;2108741;28;20190;-61
2022/12/22 05:53:42;;;;;;;72.90;29.00;;;;;;;0.72;100.00;101723.13;2107420;28;20755;-61
2022/12/22 05:54:42;;;;;;;63.57;26.80;;;;;;;1.42;100.00;101834.66;2102340;28;20412;-61
2022/12/22 05:55:42;;;;;;;63.33;27.23;;;;;;;1.47;100.00;101847.28;2102030;28;20577;-61
2022/12/22 05:56:43;;;;;;;73.10;27.97;;;;;;;1.38;100.00;101824.72;2104089;28;20293;-61
2022/12/22 05:57:44;;;;;;;70.20;27.60;;;;;;;1.52;100.00;101864.25;2107145;28;20203;-61
2022/12/22 05:58:44;;;;;;;68.87;32.93;;;;;;;1.55;100.00;101832.72;2104297;28;20694;-61
2022/12/22 05:59:45;;;;;;;68.10;28.13;;;;;;;1.51;100.00;101818.13;2095955;28;20226;-61
2022/12/22 06:00:46;;;;;;;59.55;27.60;;;;;;;0.58;100.00;101668.09;2115443;27;20190;-62
2022/12/22 06:01:46;;;;;;;70.47;26.30;;;;;;;1.47;100.00;101800.84;2118044;27;20192;-61
2022/12/22 06:02:47;;;;;;;67.03;26.30;;;;;;;1.62;100.00;101844.66;2107080;28;20190;-61
2022/12/22 06:03:47;;;;;;;65.37;27.40;;;;;;;1.00;100.00;101736.91;2102285;28;20266;-61
2022/12/22 06:04:47;;;;;;;79.20;27.10;;;;;;;1.51;100.00;101810.75;2105117;28;20799;-61
2022/12/22 06:05:49;;;;;;;67.97;26.13;;;;;;;1.69;100.00;101833.16;2104695;28;20174;-61
2022/12/22 06:06:49;;;;;;;52.03;24.83;;;;;;;1.68;100.00;101837.81;2107629;28;20225;-61
2022/12/22 06:07:50;;;;;;;49.73;24.83;;;;;;;0.77;100.00;101692.13;2109024;28;20186;-62
2022/12/22 06:08:51;;;;;;;58.58;25.50;;;;;;;1.63;100.00;101837.25;2101606;28;20204;-61
2022/12/22 06:09:51;;;;;;;62.70;25.07;;;;;;;1.66;100.00;101833.84;2071860;28;20232;-61
2022/12/22 06:10:57;;;;;;;73.57;24.73;;;;;;;1.67;100.00;101841.69;2104891;28;20194;-62
2022/12/22 06:11:57;;;;;;;69.15;23.98;;;;;;;1.62;100.00;101843.84;2106579;28;20328;-61
2022/12/22 06:12:58;;;;;;;65.13;23.67;;;;;;;1.72;100.00;101844.19;2106598;28;20795;-61
2022/12/22 06:13:58;;;;;;;44.43;24.50;;;;;;;1.82;100.00;101840.19;2109417;28;20197;-61
2022/12/22 06:14:59;;;;;;;54.13;26.10;;;;;;;1.79;100.00;101833.47;2107998;28;20194;-61
2022/12/22 06:15:59;;;;;;;56.23;25.40;;;;;;;1.84;100.00;101833.25;2109089;28;20194;-61
2022/12/22 06:17:00;;;;;;;51.97;25.40;;;;;;;1.81;100.00;101841.34;2115259;28;20228;-61
2022/12/22 06:18:00;;;;;;;49.73;25.07;;;;;;;1.89;100.00;101845.84;2115450;28;20296;-61
2022/12/22 06:19:01;;;;;;;51.77;26.30;;;;;;;1.92;100.00;101846.00;2108164;28;20250;-61
2022/12/22 06:20:02;;;;;;;52.63;26.03;;;;;;;1.97;100.00;101842.22;2110417;28;20178;-61
2022/12/22 06:21:03;;;;;;;55.97;25.80;;;;;;;1.95;100.00;101839.03;2108040;28;20199;-61
2022/12/22 06:22:03;;;;;;;86.50;24.43;;;;;;;1.96;100.00;101854.28;2107500;28;20192;-61
2022/12/22 06:23:04;;;;;;;45.57;24.33;;;;;;;1.86;100.00;101846.56;2107417;28;20204;-61
2022/12/22 06:24:05;;;;;;;64.53;22.27;;;;;;;1.80;100.00;101835.06;2107350;28;20308;-61
2022/12/22 06:25:05;;;;;;;54.07;22.17;;;;;;;1.89;100.00;101862.25;2106931;28;20224;-61
2022/12/22 06:26:06;;;;;;;59.53;23.17;;;;;;;1.97;100.00;101853.16;2108321;28;20506;-61
2022/12/22 06:27:06;;;;;;;48.47;22.33;;;;;;;2.01;100.00;101851.31;2107021;28;20186;-61
2022/12/22 06:28:07;;;;;;;50.47;23.90;;;;;;;1.97;100.00;101847.69;2107532;28;20198;-61
2022/12/22 06:29:07;;;;;;;61.03;22.77;;;;;;;1.94;100.00;101849.16;2106473;28;20199;-61
2022/12/22 06:30:08;;;;;;;44.30;22.90;;;;;;;1.96;100.00;101851.56;2107038;28;20604;-61
2022/12/22 06:31:09;;;;;;;42.70;24.10;;;;;;;1.72;100.00;101807.88;2108312;28;20202;-60
2022/12/22 06:32:09;;;;;;;44.87;23.33;;;;;;;1.42;100.00;101758.16;2114770;28;20619;-61
2022/12/22 06:33:10;;;;;;;48.00;23.87;;;;;;;2.04;100.00;101856.09;2113882;27;20181;-61
2022/12/22 06:34:11;;;;;;;52.67;22.77;;;;;;;1.76;100.00;101808.78;2104956;28;20190;-61
2022/12/22 06:35:12;;;;;;;41.03;21.40;;;;;;;1.56;100.00;101774.19;2105884;28;20279;-61
2022/12/22 06:36:12;;;;;;;43.87;22.17;;;;;;;1.80;100.00;101821.41;2107616;28;20251;-61
2022/12/22 06:37:13;;;;;;;60.50;21.83;;;;;;;2.09;100.00;101861.31;2110526;28;20238;-63
2022/12/22 06:38:13;;;;;;;48.77;21.80;;;;;;;1.63;100.00;101775.19;2107215;28;20182;-61
2022/12/22 06:39:15;;;;;;;40.60;21.53;;;;;;;1.83;100.00;101793.38;2107741;28;20496;-61
2022/12/22 06:40:16;;;;;;;38.78;21.33;;;;;;;1.79;100.00;101787.00;2108179;28;20265;-61
2022/12/22 06:43:07;;;;;;;36.50;21.40;;;;;;;2.21;100.00;101848.41;2107859;28;20206;-61
2022/12/22 06:43:58;;;;;;;87.13;21.88;;;;;;;1.74;100.00;101779.06;2105569;28;20218;-61
2022/12/22 06:44:59;;;;;;;101.83;23.17;;;;;;;1.24;100.00;101720.53;2107528;28;20210;-62
2022/12/22 06:45:59;;;;;;;63.67;21.90;;;;;;;1.88;100.00;101844.28;2108621;28;20213;-61
2022/12/22 06:46:59;;;;;;;68.63;21.93;;;;;;;1.85;100.00;101848.50;2111164;28;20270;-61
2022/12/22 06:48:00;;;;;;;58.73;21.63;;;;;;;1.84;100.00;101846.09;2108057;28;20970;-61
2022/12/22 06:49:01;;;;;;;55.30;21.43;;;;;;;1.55;100.00;101806.16;2108514;28;20727;-61
2022/12/22 06:50:01;;;;;;;46.97;22.30;;;;;;;1.76;100.00;101847.03;2108907;28;20193;-60
2022/12/22 06:51:02;;;;;;;44.97;22.43;;;;;;;1.77;100.00;101845.88;2109136;28;20195;-61
2022/12/22 06:52:06;;;;;;;44.47;23.63;;;;;;;1.85;100.00;101845.75;2107798;28;20766;-61
2022/12/22 06:53:07;;;;;;;42.30;22.73;;;;;;;1.86;100.00;101847.34;2110107;28;20618;-61
2022/12/22 06:54:08;;;;;;;43.13;22.92;;;;;;;1.81;100.00;101842.09;2108580;28;20252;-61
2022/12/22 06:55:08;;;;;;;40.93;22.77;;;;;;;1.84;100.00;101841.44;2114573;28;20190;-61
2022/12/22 06:56:09;;;;;;;54.83;22.93;;;;;;;1.88;100.00;101841.53;2115160;28;20679;-61
2022/12/22 06:57:09;;;;;;;46.07;22.73;;;;;;;1.82;100.00;101838.25;2108331;28;20202;-61
2022/12/22 06:58:10;;;;;;;40.40;21.40;;;;;;;1.89;100.00;101840.38;2106476;28;20262;-63
2022/12/22 06:59:16;;;;;;;62.77;25.10;;;;;;;1.89;100.00;101845.84;2107259;28;20631;-61
2022/12/22 07:00:17;;;;;;;42.20;22.73;;;;;;;1.81;100.00;101822.19;2116693;27;20202;-65
2022/12/22 07:01:17;;;;;;;40.80;22.63;;;;;;;1.94;100.00;101840.16;2118260;27;20190;-64
2022/12/22 07:02:18;;;;;;;40.47;22.63;;;;;;;1.96;100.00;101827.72;2109457;27;20178;-65
2022/12/22 07:03:18;;;;;;;53.13;22.07;;;;;;;2.06;100.00;101843.66;2109864;28;20233;-65
2022/12/22 07:04:20;;;;;;;47.60;23.03;;;;;;;2.07;100.00;101839.00;2108882;28;20735;-64
2022/12/22 07:05:22;;;;;;;54.28;23.98;;;;;;;2.10;100.00;101843.78;2110302;28;20201;-65
2022/12/22 07:06:23;;;;;;;59.22;25.02;;;;;;;2.09;100.00;101839.44;2119487;27;20193;-65
2022/12/22 07:07:23;;;;;;;54.70;23.37;;;;;;;1.28;100.00;101711.28;2116883;27;20306;-64
2022/12/22 07:08:24;;;;;;;48.43;23.80;;;;;;;2.12;100.00;101850.50;2108707;28;20699;-64
2022/12/22 07:09:25;;;;;;;41.63;22.77;;;;;;;2.12;100.00;101841.50;2110285;28;20202;-64
2022/12/22 07:11:44;;;;;;;38.83;22.27;;;;;;;2.19;100.00;101838.97;2109349;28;20586;-65
2022/12/22 07:12:45;;;;;;;43.33;22.67;;;;;;;2.18;100.00;101832.72;2110483;28;20258;-65
2022/12/22 07:13:46;;;;;;;47.37;22.37;;;;;;;2.13;100.00;101824.75;2112704;28;20277;-65
2022/12/22 07:14:46;;;;;;;39.53;23.17;;;;;;;2.09;100.00;101820.28;2109309;28;20191;-65
2022/12/22 07:15:47;;;;;;;50.97;22.23;;;;;;;2.11;100.00;101828.97;2109462;27;20198;-66
2022/12/22 07:16:48;;;;;;;37.35;20.42;;;;;;;2.16;100.00;101840.44;2109365;28;20317;-65
2022/12/22 07:17:51;;;;;;;54.73;23.13;;;;;;;2.15;100.00;101871.69;2109467;28;20652;-66
2022/12/22 07:18:52;;;;;;;84.03;24.63;;;;;;;2.07;100.00;101837.06;2110511;28;20182;-65
2022/12/22 07:19:52;;;;;;;53.73;21.63;;;;;;;2.13;100.00;101832.94;2111405;28;20298;-65
2022/12/22 07:20:53;;;;;;;51.93;22.17;;;;;;;2.13;100.00;101838.41;2109357;28;20210;-65
2022/12/22 07:21:53;;;;;;;43.30;21.37;;;;;;;1.98;100.00;101803.59;2109980;28;20206;-65
2022/12/22 07:22:54;;;;;;;50.90;22.73;;;;;;;2.22;100.00;101836.31;2109616;28;20206;-66
2022/12/22 07:23:54;;;;;;;38.97;22.07;;;;;;;2.25;100.00;101840.31;2107353;28;20201;-65
2022/12/22 07:24:54;;;;;;;42.10;22.60;;;;;;;2.17;100.00;101817.41;2105090;28;20216;-65
2022/12/22 07:25:55;;;;;;;36.70;21.50;;;;;;;1.43;100.00;101690.66;2111147;28;20248;-65
2022/12/22 07:26:56;;;;;;;41.63;21.60;;;;;;;2.27;100.00;101824.34;2107692;28;20666;-65
2022/12/22 07:27:56;;;;;;;43.40;23.20;;;;;;;2.37;100.00;101835.59;2110428;28;20244;-65
2022/12/22 07:28:57;;;;;;;42.83;21.47;;;;;;;1.48;100.00;101691.22;2109021;28;20203;-65
2022/12/22 07:29:57;;;;;;;39.57;22.23;;;;;;;2.37;100.00;101832.06;2109696;28;20226;-65
2022/12/22 07:31:01;;;;;;;40.90;20.47;;;;;;;2.39;100.00;101838.78;2111368;28;20301;-65
2022/12/22 07:32:02;;;;;;;40.08;21.10;;;;;;;2.41;100.00;101839.22;2111634;28;20470;-65
2022/12/22 07:33:06;;;;;;;39.60;20.83;;;;;;;2.22;100.00;101832.81;2108476;28;20190;-66
2022/12/22 07:34:06;;;;;;;35.30;20.42;;;;;;;2.03;100.00;101776.00;2109709;28;20236;-65
2022/12/22 07:35:07;;;;;;;38.10;21.40;;;;;;;2.48;100.00;101842.19;2109367;28;20218;-65
2022/12/22 07:36:14;;;;;;;52.40;25.50;;;;;;;2.37;100.00;101821.91;2107088;28;20656;-65
2022/12/22 07:37:14;;;;;;;36.13;22.45;;;;;;;2.55;100.00;101838.81;2115937;27;20233;-65
2022/12/22 07:38:15;;;;;;;34.60;20.77;;;;;;;2.56;100.00;101834.97;2119830;27;20200;-65
2022/12/22 07:39:15;;;;;;;36.93;22.27;;;;;;;2.53;100.00;101835.66;2108074;28;20253;-64
2022/12/22 07:40:16;;;;;;;32.40;19.73;;;;;;;2.53;100.00;101825.50;2108524;28;20237;-65
2022/12/22 07:42:43;;;;;;;34.00;19.45;;;;;;;2.61;100.00;101830.00;2107433;28;20299;-64
2022/12/22 07:43:44;;;;;;;35.10;19.95;;;;;;;2.62;100.00;101841.75;2108471;27;20187;-64
2022/12/22 07:44:44;;;;;;;41.90;21.00;;;;;;;2.66;100.00;101840.72;2107750;28;20293;-65
2022/12/22 07:45:45;;;;;;;40.63;22.43;;;;;;;2.32;100.00;101775.66;2107684;28;20656;-64
2022/12/22 07:46:45;;;;;;;39.80;21.60;;;;;;;2.66;100.00;101834.44;2119805;27;20179;-64
2022/12/22 07:47:47;;;;;;;36.73;20.37;;;;;;;2.57;100.00;101820.91;2117111;27;20335;-65
2022/12/22 07:50:28;;;;;;;37.47;20.63;;;;;;;2.69;100.00;101833.75;2107799;28;20736;-64
2022/12/22 07:51:34;;;;;;;38.30;22.33;;;;;;;2.66;100.00;101840.72;2108274;28;20205;-64
2022/12/22 07:52:34;;;;;;;42.65;25.92;;;;;;;2.66;100.00;101818.81;2107693;27;20760;-64
2022/12/22 07:53:35;;;;;;;35.10;21.07;;;;;;;2.72;100.00;101819.38;2108028;28;20578;-65
2022/12/22 07:54:35;;;;;;;36.43;21.50;;;;;;;2.77;100.00;101847.25;2108096;28;20232;-66
2022/12/22 07:55:36;;;;;;;34.17;21.97;;;;;;;2.52;100.00;101784.81;2107728;28;20182;-65
2022/12/22 07:56:38;;;;;;;39.27;24.57;;;;;;;2.80;100.00;101834.81;2111227;28;20187;-64
2022/12/22 07:57:51;;;;;;;38.83;22.80;;;;;;;2.85;100.00;101829.91;2104656;28;20578;-65
2022/12/22 07:58:58;;;;;;;36.47;21.75;;;;;;;2.87;100.00;101835.03;2107228;28;20554;-65
2022/12/22 08:00:06;;;;;;;37.20;22.20;;;;;;;2.88;100.00;101833.88;2108619;28;21729;-65
2022/12/22 08:01:07;;;;;;;36.40;21.95;;;;;;;2.87;100.00;101835.03;2107915;28;20204;-64
2022/12/22 08:02:11;;;;;;;34.83;20.40;;;;;;;2.14;100.00;101711.47;2107174;28;20198;-65
2022/12/22 08:03:11;;;;;;;36.67;22.00;;;;;;;2.46;100.00;101753.38;2108221;28;20271;-63
2022/12/22 08:04:13;;;;;;;38.23;21.20;;;;;;;2.91;100.00;101830.41;2114867;27;20277;-63
2022/12/22 08:05:14;;;;;;;35.10;20.08;;;;;;;2.92;100.00;101829.28;2118282;27;20178;-63
2022/12/22 08:06:14;;;;;;;30.57;19.23;;;;;;;2.96;100.00;101817.28;2114632;27;20305;-63
2022/12/22 08:07:15;;;;;;;28.50;18.33;;;;;;;2.99;100.00;101821.25;2115331;27;20190;-62
2022/12/22 08:08:15;;;;;;;32.13;20.00;;;;;;;3.00;100.00;101820.09;2107119;28;20181;-63
2022/12/22 08:09:16;;;;;;;29.60;18.97;;;;;;;3.00;100.00;101815.44;2106808;28;20269;-63
2022/12/22 08:10:18;;;;;;;30.65;18.45;;;;;;;3.06;100.00;101815.94;2108146;28;20240;-66
2022/12/22 08:11:19;;;;;;;30.42;18.48;;;;;;;2.75;100.00;101767.44;2111187;28;20507;-65
2022/12/22 08:12:19;;;;;;;31.80;19.83;;;;;;;2.63;100.00;101750.31;2107911;28;20216;-65
2022/12/22 08:13:20;;;;;;;31.60;20.07;;;;;;;2.95;100.00;101796.53;2106753;28;20203;-65
2022/12/22 08:14:21;;;;;;;31.57;18.80;;;;;;;2.87;100.00;101810.38;2109830;28;20698;-65
2022/12/22 08:15:21;;;;;;;28.73;18.90;;;;;;;2.90;100.00;101826.09;2106317;28;20222;-64
2022/12/22 08:16:22;;;;;;;28.73;18.60;;;;;;;2.92;100.00;101810.13;2108302;28;20292;-65
2022/12/22 08:17:22;;;;;;;31.33;18.80;;;;;;;2.88;100.00;101790.06;2108029;28;20214;-65
2022/12/22 08:18:22;;;;;;;34.97;18.50;;;;;;;3.01;100.00;101803.31;2111574;28;20207;-64